sensor_id;sensor_type;location;lat;lon;timestamp;temperature;humidity
33093;DHT22;19456;46.104;12.908;2023-05-17T00:01:41;17.00;99.90
33093;DHT22;19456;46.104;12.908;2023-05-17T00:04:06;17.00;99.90
33093;DHT22;19456;46.104;12.908;2023-05-17T00:06:32;17.00;99.90
33093;DHT22;19456;46.104;12.908;2023-05-17T00:08:59;17.10;99.90
33093;DHT22;19456;46.104;12.908;2023-05-17T00:11:24;17.10;99.90
33093;DHT22;19456;46.104;12.908;2023-05-17T00:13:50;17.10;99.90
33093;DHT22;19456;46.104;12.908;2023-05-17T00:16:16;17.10;99.90
33093;DHT22;19456;46.104;12.908;2023-05-17T00:18:41;17.00;99.90
33093;DHT22;19456;46.104;12.908;2023-05-17T00:21:07;17.30;99.90
33093;DHT22;19456;46.104;12.908;2023-05-17T00:23:32;17.30;99.90
33093;DHT22;19456;46.104;12.908;2023-05-17T00:25:58;17.30;99.90
33093;DHT22;19456;46.104;12.908;2023-05-17T00:28:23;17.30;99.90
33093;DHT22;19456;46.104;12.908;2023-05-17T00:30:49;17.30;99.90
33093;DHT22;19456;46.104;12.908;2023-05-17T00:33:15;17.20;99.90
33093;DHT22;19456;46.104;12.908;2023-05-17T00:35:40;17.30;99.90
33093;DHT22;19456;46.104;12.908;2023-05-17T00:38:06;17.40;99.90
33093;DHT22;19456;46.104;12.908;2023-05-17T00:40:31;17.40;99.90
33093;DHT22;19456;46.104;12.908;2023-05-17T00:42:57;17.40;99.90
33093;DHT22;19456;46.104;12.908;2023-05-17T00:45:22;17.40;99.90
33093;DHT22;19456;46.104;12.908;2023-05-17T00:47:48;17.40;99.90
33093;DHT22;19456;46.104;12.908;2023-05-17T00:50:13;17.50;99.90
33093;DHT22;19456;46.104;12.908;2023-05-17T00:52:39;17.50;99.90
33093;DHT22;19456;46.104;12.908;2023-05-17T00:55:05;17.50;99.90
33093;DHT22;19456;46.104;12.908;2023-05-17T00:57:30;17.50;99.90
33093;DHT22;19456;46.104;12.908;2023-05-17T00:59:56;17.50;99.90
33093;DHT22;19456;46.104;12.908;2023-05-17T01:02:22;17.50;99.90
33093;DHT22;19456;46.104;12.908;2023-05-17T01:04:47;17.40;99.90
33093;DHT22;19456;46.104;12.908;2023-05-17T01:07:13;17.40;99.90
33093;DHT22;19456;46.104;12.908;2023-05-17T01:09:39;17.30;99.90
33093;DHT22;19456;46.104;12.908;2023-05-17T01:16:58;17.20;99.90
33093;DHT22;19456;46.104;12.908;2023-05-17T01:22:14;17.30;99.90
33093;DHT22;19456;46.104;12.908;2023-05-17T01:25:00;17.30;99.90
33093;DHT22;19456;46.104;12.908;2023-05-17T01:27:28;17.30;99.90
33093;DHT22;19456;46.104;12.908;2023-05-17T01:29:55;17.20;99.90
33093;DHT22;19456;46.104;12.908;2023-05-17T01:32:21;17.20;99.90
33093;DHT22;19456;46.104;12.908;2023-05-17T01:34:47;17.10;99.90
33093;DHT22;19456;46.104;12.908;2023-05-17T01:37:13;17.10;99.90
33093;DHT22;19456;46.104;12.908;2023-05-17T01:39:39;17.00;99.90
33093;DHT22;19456;46.104;12.908;2023-05-17T01:44:42;17.00;99.90
33093;DHT22;19456;46.104;12.908;2023-05-17T01:47:15;17.00;99.90
33093;DHT22;19456;46.104;12.908;2023-05-17T01:49:45;17.00;99.90
33093;DHT22;19456;46.104;12.908;2023-05-17T01:52:13;17.00;99.90
33093;DHT22;19456;46.104;12.908;2023-05-17T01:57:09;17.00;99.90
33093;DHT22;19456;46.104;12.908;2023-05-17T01:59:37;17.00;99.90
33093;DHT22;19456;46.104;12.908;2023-05-17T02:02:03;17.00;99.90
33093;DHT22;19456;46.104;12.908;2023-05-17T02:04:33;17.00;99.90
33093;DHT22;19456;46.104;12.908;2023-05-17T02:06:59;17.10;99.90
33093;DHT22;19456;46.104;12.908;2023-05-17T02:09:24;17.10;99.90
33093;DHT22;19456;46.104;12.908;2023-05-17T02:11:50;17.10;99.90
33093;DHT22;19456;46.104;12.908;2023-05-17T02:14:15;17.00;99.90
33093;DHT22;19456;46.104;12.908;2023-05-17T02:16:41;17.00;99.90
33093;DHT22;19456;46.104;12.908;2023-05-17T02:19:06;17.00;99.90
33093;DHT22;19456;46.104;12.908;2023-05-17T02:21:33;17.00;99.90
33093;DHT22;19456;46.104;12.908;2023-05-17T02:23:59;16.90;99.90
33093;DHT22;19456;46.104;12.908;2023-05-17T02:26:24;16.90;99.90
33093;DHT22;19456;46.104;12.908;2023-05-17T02:28:50;16.90;99.90
33093;DHT22;19456;46.104;12.908;2023-05-17T02:31:16;16.90;99.90
33093;DHT22;19456;46.104;12.908;2023-05-17T02:33:41;16.90;99.90
33093;DHT22;19456;46.104;12.908;2023-05-17T02:36:07;16.80;99.90
33093;DHT22;19456;46.104;12.908;2023-05-17T02:38:32;16.80;99.90
33093;DHT22;19456;46.104;12.908;2023-05-17T02:40:58;16.80;99.90
33093;DHT22;19456;46.104;12.908;2023-05-17T02:43:23;16.80;99.90
33093;DHT22;19456;46.104;12.908;2023-05-17T02:45:49;16.80;99.90
33093;DHT22;19456;46.104;12.908;2023-05-17T02:48:14;16.80;99.90
33093;DHT22;19456;46.104;12.908;2023-05-17T02:50:40;16.70;99.90
33093;DHT22;19456;46.104;12.908;2023-05-17T02:53:06;16.70;99.90
33093;DHT22;19456;46.104;12.908;2023-05-17T02:55:31;16.80;99.90
33093;DHT22;19456;46.104;12.908;2023-05-17T02:57:57;16.90;99.90
33093;DHT22;19456;46.104;12.908;2023-05-17T03:00:22;17.00;99.90
33093;DHT22;19456;46.104;12.908;2023-05-17T03:02:48;17.00;99.90
33093;DHT22;19456;46.104;12.908;2023-05-17T03:05:14;17.10;99.90
33093;DHT22;19456;46.104;12.908;2023-05-17T03:07:39;17.10;99.90
33093;DHT22;19456;46.104;12.908;2023-05-17T03:10:05;17.10;99.90
33093;DHT22;19456;46.104;12.908;2023-05-17T03:12:31;17.10;99.90
33093;DHT22;19456;46.104;12.908;2023-05-17T03:14:57;17.10;99.90
33093;DHT22;19456;46.104;12.908;2023-05-17T03:17:22;17.10;99.90
33093;DHT22;19456;46.104;12.908;2023-05-17T03:19:48;17.10;99.90
33093;DHT22;19456;46.104;12.908;2023-05-17T03:22:13;17.10;99.90
33093;DHT22;19456;46.104;12.908;2023-05-17T03:24:39;17.00;99.90
33093;DHT22;19456;46.104;12.908;2023-05-17T03:27:04;16.90;99.90
33093;DHT22;19456;46.104;12.908;2023-05-17T03:29:30;16.80;99.90
33093;DHT22;19456;46.104;12.908;2023-05-17T03:31:55;16.80;99.90
33093;DHT22;19456;46.104;12.908;2023-05-17T03:34:21;16.90;99.90
33093;DHT22;19456;46.104;12.908;2023-05-17T03:36:46;16.90;99.90
33093;DHT22;19456;46.104;12.908;2023-05-17T03:39:12;16.90;99.90
33093;DHT22;19456;46.104;12.908;2023-05-17T03:41:38;16.90;99.90
33093;DHT22;19456;46.104;12.908;2023-05-17T03:44:03;16.90;99.90
33093;DHT22;19456;46.104;12.908;2023-05-17T03:46:29;16.90;99.90
33093;DHT22;19456;46.104;12.908;2023-05-17T03:48:54;16.90;99.90
33093;DHT22;19456;46.104;12.908;2023-05-17T03:51:20;16.90;99.90
33093;DHT22;19456;46.104;12.908;2023-05-17T03:53:46;16.80;99.90
33093;DHT22;19456;46.104;12.908;2023-05-17T03:56:11;16.80;99.90
33093;DHT22;19456;46.104;12.908;2023-05-17T03:58:37;16.70;99.90
33093;DHT22;19456;46.104;12.908;2023-05-17T04:01:03;16.70;99.90
33093;DHT22;19456;46.104;12.908;2023-05-17T04:03:28;16.70;99.90
33093;DHT22;19456;46.104;12.908;2023-05-17T04:05:59;16.60;99.90
33093;DHT22;19456;46.104;12.908;2023-05-17T04:08:25;16.60;99.90
33093;DHT22;19456;46.104;12.908;2023-05-17T04:10:51;16.60;99.90
33093;DHT22;19456;46.104;12.908;2023-05-17T04:13:16;16.60;99.90
33093;DHT22;19456;46.104;12.908;2023-05-17T04:15:42;16.60;99.90
33093;DHT22;19456;46.104;12.908;2023-05-17T04:18:07;16.50;99.90
33093;DHT22;19456;46.104;12.908;2023-05-17T04:20:33;16.50;99.90
33093;DHT22;19456;46.104;12.908;2023-05-17T04:22:58;16.50;99.90
33093;DHT22;19456;46.104;12.908;2023-05-17T04:25:24;16.60;99.90
33093;DHT22;19456;46.104;12.908;2023-05-17T04:27:50;16.60;99.90
33093;DHT22;19456;46.104;12.908;2023-05-17T04:30:15;16.60;99.90
33093;DHT22;19456;46.104;12.908;2023-05-17T04:32:41;16.50;99.90
33093;DHT22;19456;46.104;12.908;2023-05-17T04:35:07;16.50;99.90
33093;DHT22;19456;46.104;12.908;2023-05-17T04:37:33;16.50;99.90
33093;DHT22;19456;46.104;12.908;2023-05-17T04:39:58;16.60;99.90
33093;DHT22;19456;46.104;12.908;2023-05-17T04:42:24;16.70;99.90
33093;DHT22;19456;46.104;12.908;2023-05-17T04:44:50;16.80;99.90
33093;DHT22;19456;46.104;12.908;2023-05-17T04:47:16;16.80;99.90
33093;DHT22;19456;46.104;12.908;2023-05-17T04:49:41;16.80;99.90
33093;DHT22;19456;46.104;12.908;2023-05-17T04:52:07;16.80;99.90
33093;DHT22;19456;46.104;12.908;2023-05-17T04:54:33;16.80;99.90
33093;DHT22;19456;46.104;12.908;2023-05-17T04:56:59;16.80;99.90
33093;DHT22;19456;46.104;12.908;2023-05-17T04:59:24;16.90;99.90
33093;DHT22;19456;46.104;12.908;2023-05-17T05:01:50;17.00;99.90
33093;DHT22;19456;46.104;12.908;2023-05-17T05:04:15;16.90;99.90
33093;DHT22;19456;46.104;12.908;2023-05-17T05:06:41;17.00;99.90
33093;DHT22;19456;46.104;12.908;2023-05-17T05:09:06;17.00;99.90
33093;DHT22;19456;46.104;12.908;2023-05-17T05:11:32;17.10;99.90
33093;DHT22;19456;46.104;12.908;2023-05-17T05:13:57;17.10;99.90
33093;DHT22;19456;46.104;12.908;2023-05-17T05:16:23;17.10;99.90
33093;DHT22;19456;46.104;12.908;2023-05-17T05:18:49;17.10;99.90
33093;DHT22;19456;46.104;12.908;2023-05-17T05:21:14;17.20;99.90
33093;DHT22;19456;46.104;12.908;2023-05-17T05:23:40;17.20;99.90
33093;DHT22;19456;46.104;12.908;2023-05-17T05:26:05;17.20;99.90
33093;DHT22;19456;46.104;12.908;2023-05-17T05:28:31;17.20;99.90
33093;DHT22;19456;46.104;12.908;2023-05-17T05:30:57;17.20;99.90
33093;DHT22;19456;46.104;12.908;2023-05-17T05:33:23;17.20;99.90
33093;DHT22;19456;46.104;12.908;2023-05-17T05:35:49;17.20;99.90
33093;DHT22;19456;46.104;12.908;2023-05-17T05:38:14;17.20;99.90
33093;DHT22;19456;46.104;12.908;2023-05-17T05:40:40;17.20;99.90
33093;DHT22;19456;46.104;12.908;2023-05-17T05:43:06;17.30;99.90
33093;DHT22;19456;46.104;12.908;2023-05-17T05:45:32;17.40;99.90
33093;DHT22;19456;46.104;12.908;2023-05-17T05:47:57;17.40;99.90
33093;DHT22;19456;46.104;12.908;2023-05-17T05:50:24;17.50;99.90
33093;DHT22;19456;46.104;12.908;2023-05-17T05:52:49;17.50;99.90
33093;DHT22;19456;46.104;12.908;2023-05-17T05:55:15;17.50;99.90
33093;DHT22;19456;46.104;12.908;2023-05-17T05:57:42;17.60;99.90
33093;DHT22;19456;46.104;12.908;2023-05-17T06:00:08;17.60;99.90
33093;DHT22;19456;46.104;12.908;2023-05-17T06:02:34;17.60;99.90
33093;DHT22;19456;46.104;12.908;2023-05-17T06:04:59;17.80;99.90
33093;DHT22;19456;46.104;12.908;2023-05-17T06:07:27;17.90;99.90
33093;DHT22;19456;46.104;12.908;2023-05-17T06:09:53;18.00;99.90
33093;DHT22;19456;46.104;12.908;2023-05-17T06:12:18;18.20;99.90
33093;DHT22;19456;46.104;12.908;2023-05-17T06:14:44;18.30;99.90
33093;DHT22;19456;46.104;12.908;2023-05-17T06:17:10;18.40;99.90
33093;DHT22;19456;46.104;12.908;2023-05-17T06:19:36;18.50;99.90
33093;DHT22;19456;46.104;12.908;2023-05-17T06:22:01;18.50;99.90
33093;DHT22;19456;46.104;12.908;2023-05-17T06:24:27;18.60;99.90
33093;DHT22;19456;46.104;12.908;2023-05-17T06:26:52;18.70;99.90
33093;DHT22;19456;46.104;12.908;2023-05-17T06:29:18;18.70;99.90
33093;DHT22;19456;46.104;12.908;2023-05-17T06:31:43;18.80;99.90
33093;DHT22;19456;46.104;12.908;2023-05-17T06:34:09;18.80;99.90
33093;DHT22;19456;46.104;12.908;2023-05-17T06:36:34;18.80;99.90
33093;DHT22;19456;46.104;12.908;2023-05-17T06:39:00;18.90;99.90
33093;DHT22;19456;46.104;12.908;2023-05-17T06:41:25;18.90;99.90
33093;DHT22;19456;46.104;12.908;2023-05-17T06:43:51;18.80;99.90
33093;DHT22;19456;46.104;12.908;2023-05-17T06:46:16;18.80;99.90
33093;DHT22;19456;46.104;12.908;2023-05-17T06:48:42;18.90;99.90
33093;DHT22;19456;46.104;12.908;2023-05-17T06:51:08;19.00;99.90
33093;DHT22;19456;46.104;12.908;2023-05-17T06:53:33;19.10;99.90
33093;DHT22;19456;46.104;12.908;2023-05-17T06:55:59;19.20;99.90
33093;DHT22;19456;46.104;12.908;2023-05-17T06:58:24;19.10;99.90
33093;DHT22;19456;46.104;12.908;2023-05-17T07:00:50;19.20;99.90
33093;DHT22;19456;46.104;12.908;2023-05-17T07:03:16;19.20;99.90
33093;DHT22;19456;46.104;12.908;2023-05-17T07:05:41;19.10;99.90
33093;DHT22;19456;46.104;12.908;2023-05-17T07:08:07;19.00;99.90
33093;DHT22;19456;46.104;12.908;2023-05-17T07:10:33;18.70;99.90
33093;DHT22;19456;46.104;12.908;2023-05-17T07:12:58;18.60;99.90
33093;DHT22;19456;46.104;12.908;2023-05-17T07:15:24;18.70;99.90
33093;DHT22;19456;46.104;12.908;2023-05-17T07:17:50;18.80;99.90
33093;DHT22;19456;46.104;12.908;2023-05-17T07:20:15;18.90;99.90
33093;DHT22;19456;46.104;12.908;2023-05-17T07:22:41;18.90;99.90
33093;DHT22;19456;46.104;12.908;2023-05-17T07:25:06;19.00;99.90
33093;DHT22;19456;46.104;12.908;2023-05-17T07:27:32;19.10;99.90
33093;DHT22;19456;46.104;12.908;2023-05-17T07:29:58;19.10;99.90
33093;DHT22;19456;46.104;12.908;2023-05-17T07:32:23;19.10;99.90
33093;DHT22;19456;46.104;12.908;2023-05-17T07:34:51;19.10;99.90
33093;DHT22;19456;46.104;12.908;2023-05-17T07:37:17;19.10;99.90
33093;DHT22;19456;46.104;12.908;2023-05-17T07:39:42;19.10;99.90
33093;DHT22;19456;46.104;12.908;2023-05-17T07:42:08;19.10;99.90
33093;DHT22;19456;46.104;12.908;2023-05-17T07:44:33;19.00;99.90
33093;DHT22;19456;46.104;12.908;2023-05-17T07:46:59;18.90;99.90
33093;DHT22;19456;46.104;12.908;2023-05-17T07:49:25;18.90;99.90
33093;DHT22;19456;46.104;12.908;2023-05-17T07:51:51;19.00;99.90
33093;DHT22;19456;46.104;12.908;2023-05-17T07:54:25;19.00;99.90
33093;DHT22;19456;46.104;12.908;2023-05-17T07:56:51;19.00;99.90
33093;DHT22;19456;46.104;12.908;2023-05-17T07:59:22;19.00;99.90
33093;DHT22;19456;46.104;12.908;2023-05-17T08:01:48;19.20;99.90
33093;DHT22;19456;46.104;12.908;2023-05-17T08:04:14;19.30;99.90
33093;DHT22;19456;46.104;12.908;2023-05-17T08:06:40;19.40;99.90
33093;DHT22;19456;46.104;12.908;2023-05-17T08:09:06;19.50;99.90
33093;DHT22;19456;46.104;12.908;2023-05-17T08:11:32;19.60;99.90
33093;DHT22;19456;46.104;12.908;2023-05-17T08:13:59;19.70;99.90
33093;DHT22;19456;46.104;12.908;2023-05-17T08:16:24;19.60;99.90
33093;DHT22;19456;46.104;12.908;2023-05-17T08:18:50;19.40;99.90
33093;DHT22;19456;46.104;12.908;2023-05-17T08:21:16;19.10;99.90
33093;DHT22;19456;46.104;12.908;2023-05-17T08:23:42;18.80;99.90
33093;DHT22;19456;46.104;12.908;2023-05-17T08:26:08;18.60;99.90
33093;DHT22;19456;46.104;12.908;2023-05-17T08:28:33;18.50;99.90
33093;DHT22;19456;46.104;12.908;2023-05-17T08:30:59;18.60;99.90
33093;DHT22;19456;46.104;12.908;2023-05-17T08:33:25;18.80;99.90
33093;DHT22;19456;46.104;12.908;2023-05-17T08:35:51;19.00;99.90
33093;DHT22;19456;46.104;12.908;2023-05-17T08:38:20;19.30;99.90
33093;DHT22;19456;46.104;12.908;2023-05-17T08:40:54;19.60;99.90
33093;DHT22;19456;46.104;12.908;2023-05-17T08:43:21;19.70;99.90
33093;DHT22;19456;46.104;12.908;2023-05-17T08:45:47;19.90;99.90
33093;DHT22;19456;46.104;12.908;2023-05-17T08:48:14;20.00;99.90
33093;DHT22;19456;46.104;12.908;2023-05-17T08:50:41;20.10;99.90
33093;DHT22;19456;46.104;12.908;2023-05-17T08:53:14;20.10;99.90
33093;DHT22;19456;46.104;12.908;2023-05-17T08:55:41;20.20;99.90
33093;DHT22;19456;46.104;12.908;2023-05-17T08:58:24;20.40;99.90
33093;DHT22;19456;46.104;12.908;2023-05-17T09:00:57;20.30;99.90
33093;DHT22;19456;46.104;12.908;2023-05-17T09:03:28;20.30;99.90
33093;DHT22;19456;46.104;12.908;2023-05-17T09:05:54;20.10;99.90
33093;DHT22;19456;46.104;12.908;2023-05-17T09:08:20;20.00;99.90
33093;DHT22;19456;46.104;12.908;2023-05-17T09:10:46;19.80;99.90
33093;DHT22;19456;46.104;12.908;2023-05-17T09:13:12;19.90;99.90
33093;DHT22;19456;46.104;12.908;2023-05-17T09:15:41;19.50;99.90
33093;DHT22;19456;46.104;12.908;2023-05-17T09:18:08;19.60;99.90
33093;DHT22;19456;46.104;12.908;2023-05-17T09:20:34;19.60;99.90
33093;DHT22;19456;46.104;12.908;2023-05-17T09:23:01;19.50;99.90
33093;DHT22;19456;46.104;12.908;2023-05-17T09:25:27;19.70;99.90
33093;DHT22;19456;46.104;12.908;2023-05-17T09:27:54;19.70;99.90
33093;DHT22;19456;46.104;12.908;2023-05-17T09:30:30;19.90;99.90
33093;DHT22;19456;46.104;12.908;2023-05-17T09:32:56;19.90;99.90
33093;DHT22;19456;46.104;12.908;2023-05-17T09:35:28;19.90;99.90
33093;DHT22;19456;46.104;12.908;2023-05-17T09:37:56;19.90;99.90
33093;DHT22;19456;46.104;12.908;2023-05-17T09:40:29;19.90;99.90
33093;DHT22;19456;46.104;12.908;2023-05-17T09:42:54;19.80;99.90
33093;DHT22;19456;46.104;12.908;2023-05-17T09:45:21;19.70;99.90
33093;DHT22;19456;46.104;12.908;2023-05-17T09:47:47;19.50;99.90
33093;DHT22;19456;46.104;12.908;2023-05-17T09:50:17;19.50;99.90
33093;DHT22;19456;46.104;12.908;2023-05-17T09:52:43;19.40;99.90
33093;DHT22;19456;46.104;12.908;2023-05-17T09:55:10;19.40;99.90
33093;DHT22;19456;46.104;12.908;2023-05-17T09:57:39;19.60;99.90
33093;DHT22;19456;46.104;12.908;2023-05-17T10:00:06;19.60;99.90
33093;DHT22;19456;46.104;12.908;2023-05-17T10:02:38;19.60;99.90
33093;DHT22;19456;46.104;12.908;2023-05-17T10:05:07;19.20;99.90
33093;DHT22;19456;46.104;12.908;2023-05-17T10:07:33;18.90;99.90
33093;DHT22;19456;46.104;12.908;2023-05-17T10:09:59;18.80;99.90
33093;DHT22;19456;46.104;12.908;2023-05-17T10:12:26;18.70;99.90
33093;DHT22;19456;46.104;12.908;2023-05-17T10:14:53;18.70;99.90
33093;DHT22;19456;46.104;12.908;2023-05-17T10:17:20;18.70;99.90
33093;DHT22;19456;46.104;12.908;2023-05-17T10:19:46;18.60;99.90
33093;DHT22;19456;46.104;12.908;2023-05-17T10:22:12;18.60;99.90
33093;DHT22;19456;46.104;12.908;2023-05-17T10:24:38;18.50;99.90
33093;DHT22;19456;46.104;12.908;2023-05-17T10:27:04;18.50;99.90
33093;DHT22;19456;46.104;12.908;2023-05-17T10:29:30;18.50;99.90
33093;DHT22;19456;46.104;12.908;2023-05-17T10:31:57;18.30;99.90
33093;DHT22;19456;46.104;12.908;2023-05-17T10:34:23;18.30;99.90
33093;DHT22;19456;46.104;12.908;2023-05-17T10:36:50;18.40;99.90
33093;DHT22;19456;46.104;12.908;2023-05-17T10:39:16;18.50;99.90
33093;DHT22;19456;46.104;12.908;2023-05-17T10:41:42;18.30;99.90
33093;DHT22;19456;46.104;12.908;2023-05-17T10:44:11;18.30;99.90
33093;DHT22;19456;46.104;12.908;2023-05-17T10:46:37;18.40;99.90
33093;DHT22;19456;46.104;12.908;2023-05-17T10:49:03;18.20;99.90
33093;DHT22;19456;46.104;12.908;2023-05-17T10:51:30;18.00;99.90
33093;DHT22;19456;46.104;12.908;2023-05-17T10:56:30;17.60;99.90
33093;DHT22;19456;46.104;12.908;2023-05-17T10:59:15;17.40;99.90
33093;DHT22;19456;46.104;12.908;2023-05-17T11:04:50;17.60;99.90
33093;DHT22;19456;46.104;12.908;2023-05-17T11:09:45;17.70;99.90
33093;DHT22;19456;46.104;12.908;2023-05-17T11:12:13;17.80;99.90
33093;DHT22;19456;46.104;12.908;2023-05-17T11:14:52;18.00;99.90
33093;DHT22;19456;46.104;12.908;2023-05-17T11:17:19;18.00;99.90
33093;DHT22;19456;46.104;12.908;2023-05-17T11:22:15;18.00;99.90
33093;DHT22;19456;46.104;12.908;2023-05-17T11:24:41;17.90;99.90
33093;DHT22;19456;46.104;12.908;2023-05-17T11:27:08;17.80;99.90
33093;DHT22;19456;46.104;12.908;2023-05-17T11:29:34;17.70;99.90
33093;DHT22;19456;46.104;12.908;2023-05-17T11:31:59;17.70;99.90
33093;DHT22;19456;46.104;12.908;2023-05-17T11:34:31;17.80;99.90
33093;DHT22;19456;46.104;12.908;2023-05-17T11:36:57;18.00;99.90
33093;DHT22;19456;46.104;12.908;2023-05-17T11:39:23;18.00;99.90
33093;DHT22;19456;46.104;12.908;2023-05-17T11:41:55;17.90;99.90
33093;DHT22;19456;46.104;12.908;2023-05-17T11:44:27;17.80;99.90
33093;DHT22;19456;46.104;12.908;2023-05-17T11:47:00;17.90;99.90
33093;DHT22;19456;46.104;12.908;2023-05-17T11:49:27;17.80;99.90
33093;DHT22;19456;46.104;12.908;2023-05-17T11:51:54;17.70;99.90
33093;DHT22;19456;46.104;12.908;2023-05-17T11:54:25;17.70;99.90
33093;DHT22;19456;46.104;12.908;2023-05-17T11:56:54;17.70;99.90
33093;DHT22;19456;46.104;12.908;2023-05-17T11:59:21;17.60;99.90
33093;DHT22;19456;46.104;12.908;2023-05-17T12:01:47;17.50;99.90
33093;DHT22;19456;46.104;12.908;2023-05-17T12:04:13;17.60;99.90
33093;DHT22;19456;46.104;12.908;2023-05-17T12:06:39;17.60;99.90
33093;DHT22;19456;46.104;12.908;2023-05-17T12:09:04;17.60;99.90
33093;DHT22;19456;46.104;12.908;2023-05-17T12:11:35;17.50;99.90
33093;DHT22;19456;46.104;12.908;2023-05-17T12:14:00;17.30;99.90
33093;DHT22;19456;46.104;12.908;2023-05-17T12:16:26;17.40;99.90
33093;DHT22;19456;46.104;12.908;2023-05-17T12:18:52;17.40;99.90
33093;DHT22;19456;46.104;12.908;2023-05-17T12:21:18;17.50;99.90
33093;DHT22;19456;46.104;12.908;2023-05-17T12:23:45;17.60;99.90
33093;DHT22;19456;46.104;12.908;2023-05-17T12:28:37;17.90;99.90
33093;DHT22;19456;46.104;12.908;2023-05-17T12:31:04;17.90;99.90
33093;DHT22;19456;46.104;12.908;2023-05-17T12:33:31;18.10;99.90
33093;DHT22;19456;46.104;12.908;2023-05-17T12:35:58;18.20;99.90
33093;DHT22;19456;46.104;12.908;2023-05-17T12:38:24;18.30;99.90
